createdAt,value
2018-08-12T01:29:02.365Z,17.10
2018-08-12T01:31:30.834Z,15.90
2018-08-12T01:34:00.743Z,15.80
2018-08-12T01:36:29.256Z,15.90
2018-08-12T01:38:57.625Z,15.80
2018-08-12T01:41:25.952Z,15.80
2018-08-12T01:43:54.287Z,15.70
2018-08-12T01:46:23.643Z,15.70
2018-08-12T01:48:53.042Z,15.70
2018-08-12T01:51:21.540Z,15.70
2018-08-12T01:53:50.269Z,15.70
2018-08-12T04:12:32.386Z,15.60
2018-08-12T04:15:01.609Z,14.70
2018-08-12T04:17:30.037Z,14.50
2018-08-12T04:19:58.462Z,14.50
2018-08-12T04:22:26.827Z,14.40
2018-08-12T04:24:55.235Z,14.30
2018-08-12T04:27:23.640Z,14.30
2018-08-12T04:29:52.029Z,14.30
2018-08-12T04:32:20.394Z,14.30
2018-08-12T04:34:48.771Z,14.20
2018-08-12T04:37:17.038Z,14.20
2018-08-12T04:39:45.806Z,14.30
2018-08-12T04:44:42.283Z,14.30
2018-08-12T04:47:10.615Z,14.40
2018-08-12T04:49:38.921Z,14.40
2018-08-12T04:52:07.235Z,14.50
2018-08-12T04:54:35.514Z,14.50
2018-08-12T04:57:04.453Z,14.60
2018-08-12T04:59:32.810Z,14.70
2018-08-12T05:02:01.102Z,14.80
2018-08-12T05:04:29.421Z,14.80
2018-08-12T05:06:57.786Z,14.80
2018-08-12T05:09:26.401Z,14.80
2018-08-12T05:11:54.788Z,14.90
2018-08-12T05:14:23.148Z,14.90
2018-08-12T05:16:51.498Z,15.00
2018-08-12T05:19:19.798Z,15.10
2018-08-12T05:21:48.139Z,15.20
2018-08-12T05:24:16.522Z,15.30
2018-08-12T05:26:44.838Z,15.40
2018-08-12T05:29:13.121Z,15.50
2018-08-12T05:31:41.487Z,15.60
2018-08-12T05:34:09.817Z,15.60
2018-08-12T05:36:38.347Z,15.70
2018-08-12T05:39:09.236Z,15.80
2018-08-12T05:41:37.612Z,15.90
2018-08-12T05:44:06.282Z,16.00
2018-08-12T05:46:34.593Z,16.10
2018-08-12T05:49:02.969Z,16.30
2018-08-12T05:51:31.348Z,16.40
2018-08-12T05:53:59.649Z,16.50
2018-08-12T05:56:27.977Z,16.60
2018-08-12T05:58:56.567Z,16.70
2018-08-12T06:01:24.852Z,16.80
2018-08-12T06:03:53.143Z,16.80
2018-08-12T06:06:21.491Z,16.90
2018-08-12T06:08:49.848Z,17.00
2018-08-12T06:11:18.174Z,17.00
2018-08-12T06:13:46.530Z,17.20
2018-08-12T06:21:11.049Z,17.20
2018-08-12T06:23:39.506Z,17.60
2018-08-12T06:26:07.796Z,17.70
2018-08-12T06:28:36.197Z,17.80
2018-08-12T06:31:04.565Z,18.00
2018-08-12T06:33:32.935Z,18.00
2018-08-12T06:36:01.318Z,18.00
2018-08-12T06:38:30.158Z,18.10
2018-08-12T06:40:59.709Z,18.20
2018-08-12T06:43:27.997Z,18.40
2018-08-12T06:45:56.332Z,18.50
2018-08-12T06:48:24.679Z,18.50
2018-08-12T06:50:53.044Z,18.50
2018-08-12T06:53:21.437Z,18.70
2018-08-12T06:55:49.747Z,18.80
2018-08-12T06:58:18.064Z,18.80
2018-08-12T07:00:46.384Z,18.90
2018-08-12T07:03:14.728Z,18.90
2018-08-12T07:05:43.141Z,19.10
2018-08-12T07:08:11.509Z,19.10
2018-08-12T07:10:39.840Z,19.10
2018-08-12T07:13:08.220Z,19.10
2018-08-12T07:15:36.580Z,19.20
2018-08-12T08:52:11.134Z,19.50
2018-08-12T08:54:39.444Z,22.30
2018-08-12T08:57:09.165Z,22.50
2018-08-12T10:03:52.957Z,22.60
2018-08-12T10:06:21.284Z,23.10
2018-08-12T10:08:49.612Z,23.00
2018-08-12T10:11:17.973Z,23.20
2018-08-12T10:13:46.362Z,23.40
2018-08-12T10:16:14.810Z,23.30
2018-08-12T10:18:43.931Z,23.30
2018-08-12T10:21:12.350Z,23.40
2018-08-12T10:23:40.682Z,23.30
2018-08-12T10:26:09.062Z,23.50
2018-08-12T10:28:37.424Z,23.60
2018-08-12T10:31:05.823Z,23.70
2018-08-12T10:33:34.144Z,24.00
2018-08-12T11:23:06.412Z,24.10
2018-08-12T11:25:35.424Z,24.70
2018-08-12T11:28:03.791Z,24.70
2018-08-12T11:30:32.227Z,24.80
2018-08-12T11:33:00.548Z,24.60
2018-08-12T11:35:28.919Z,24.90
2018-08-12T11:37:57.464Z,25.00
2018-08-12T11:40:25.872Z,25.10
2018-08-12T11:42:54.680Z,25.10
2018-08-12T11:45:23.076Z,25.00
2018-08-12T11:47:51.487Z,24.90
2018-08-12T11:50:19.819Z,24.80
2018-08-12T11:52:48.321Z,25.00
2018-08-12T12:27:35.989Z,25.10
2018-08-12T12:30:05.657Z,26.70
2018-08-12T12:32:33.938Z,27.50
2018-08-12T12:35:02.318Z,27.40
2018-08-12T12:37:30.625Z,27.20
2018-08-12T12:39:58.968Z,27.60
2018-08-12T12:42:27.291Z,28.90
2018-08-12T12:44:55.571Z,30.00
2018-08-12T12:47:24.035Z,30.40
2018-08-12T12:49:52.891Z,30.80
2018-08-12T12:52:21.270Z,30.80
2018-08-12T12:54:49.673Z,30.90
2018-08-12T12:57:18.151Z,31.10
2018-08-12T12:59:47.003Z,31.60
2018-08-12T13:02:16.386Z,32.00
2018-08-12T13:04:44.763Z,32.00
2018-08-12T13:07:13.119Z,31.80
2018-08-12T13:09:41.455Z,32.30
2018-08-12T13:12:09.788Z,32.40
2018-08-12T13:14:38.188Z,32.90
2018-08-12T13:17:06.454Z,33.80
2018-08-12T13:19:34.778Z,32.70
2018-08-12T13:22:03.814Z,32.60
2018-08-12T13:24:32.140Z,32.10
2018-08-12T13:27:00.690Z,32.20
2018-08-12T13:29:29.187Z,32.10
2018-08-12T13:31:57.505Z,32.70
2018-08-12T13:34:26.742Z,33.60
2018-08-12T13:36:55.441Z,33.80
2018-08-12T13:39:23.911Z,35.30
2018-08-12T13:41:52.366Z,35.30
2018-08-12T13:44:23.664Z,35.30
2018-08-12T13:46:55.415Z,35.40
2018-08-12T13:49:26.014Z,35.30
2018-08-12T13:51:55.726Z,36.10
2018-08-12T13:54:28.402Z,37.50
2018-08-12T13:56:57.808Z,38.20
2018-08-12T13:59:27.549Z,37.20
2018-08-12T14:01:55.937Z,36.00
2018-08-12T14:04:24.415Z,35.60
2018-08-12T14:06:53.763Z,35.70
2018-08-12T14:09:22.268Z,35.80
2018-08-12T14:11:51.421Z,36.20
2018-08-12T14:14:19.886Z,36.30
2018-08-12T14:16:48.285Z,36.40
2018-08-12T14:19:17.426Z,36.70
2018-08-12T14:21:45.779Z,37.00
2018-08-12T14:24:14.728Z,36.80
2018-08-12T14:26:43.292Z,36.00
2018-08-12T14:29:11.701Z,36.10
2018-08-12T14:31:40.106Z,37.60
2018-08-12T14:34:08.500Z,39.00
2018-08-12T14:36:37.237Z,38.10
2018-08-12T14:39:07.863Z,37.80
2018-08-12T14:41:36.618Z,37.20
2018-08-12T14:44:05.885Z,38.10
2018-08-12T14:46:34.411Z,37.30
2018-08-12T14:49:03.009Z,36.90
2018-08-12T14:51:34.540Z,37.10
2018-08-12T14:54:03.012Z,37.50
2018-08-12T14:56:32.112Z,37.00
2018-08-12T14:59:00.447Z,38.40
2018-08-12T15:01:28.836Z,38.40
2018-08-12T15:03:57.313Z,37.40
2018-08-12T15:06:25.863Z,38.10
2018-08-12T15:08:54.379Z,38.80
2018-08-12T15:11:23.731Z,39.80
2018-08-12T15:13:52.085Z,39.10
2018-08-12T15:16:20.397Z,37.60
2018-08-12T15:18:48.745Z,37.30
2018-08-12T15:21:17.168Z,37.30
2018-08-12T15:23:46.430Z,37.70
2018-08-12T15:26:16.423Z,37.40
2018-08-12T15:28:45.102Z,37.00
2018-08-12T15:31:13.486Z,36.90
2018-08-12T15:33:41.852Z,37.20
2018-08-12T15:36:11.680Z,37.50
2018-08-12T15:38:40.767Z,38.00
2018-08-12T15:41:10.318Z,38.30
2018-08-12T15:43:38.796Z,37.80
2018-08-12T15:46:07.458Z,37.30
2018-08-12T15:48:36.909Z,36.60
2018-08-12T15:51:06.002Z,36.50
2018-08-12T15:53:34.374Z,36.70
2018-08-12T15:56:03.651Z,37.00
2018-08-12T15:58:33.161Z,37.50
2018-08-12T16:01:03.096Z,38.00
2018-08-12T16:03:33.018Z,37.80
2018-08-12T16:06:02.863Z,38.40
2018-08-12T16:08:31.801Z,38.20
2018-08-12T16:11:03.497Z,38.40
2018-08-12T16:13:33.812Z,38.30
2018-08-12T16:16:04.034Z,38.30
2018-08-12T16:18:33.912Z,37.60
2018-08-12T16:21:03.839Z,35.70
2018-08-12T16:23:34.645Z,33.90
2018-08-12T16:26:04.170Z,32.70
2018-08-12T16:28:33.794Z,31.60
2018-08-12T16:31:04.352Z,30.70
2018-08-12T16:33:33.883Z,30.20
2018-08-12T16:36:02.942Z,29.60
2018-08-12T16:38:32.460Z,29.30
2018-08-12T16:41:05.927Z,28.90
2018-08-12T16:43:35.393Z,28.80
2018-08-12T16:46:04.625Z,28.80
2018-08-12T16:48:32.918Z,28.80
2018-08-12T16:51:01.254Z,28.70
2018-08-12T16:53:31.236Z,28.70
2018-08-12T16:55:59.626Z,28.80
2018-08-12T16:58:27.974Z,28.80
2018-08-12T17:00:56.997Z,28.60
2018-08-12T17:03:25.468Z,28.50
2018-08-12T17:05:53.838Z,28.30
2018-08-12T17:08:22.208Z,28.30
2018-08-12T17:10:50.544Z,28.20
2018-08-12T17:13:19.100Z,28.10
2018-08-12T17:15:48.174Z,28.10
2018-08-12T17:18:16.875Z,28.10
2018-08-12T17:20:45.347Z,28.00
2018-08-12T17:23:13.658Z,27.90
2018-08-12T17:25:42.099Z,27.80
2018-08-12T17:28:10.385Z,27.60
2018-08-12T17:30:38.923Z,27.40
2018-08-12T17:33:07.987Z,27.40
2018-08-12T17:35:37.082Z,27.30
2018-08-12T17:38:05.431Z,27.20
2018-08-12T17:40:33.781Z,27.10
2018-08-12T17:43:02.115Z,27.10
2018-08-12T17:45:30.545Z,27.00
2018-08-12T17:47:59.059Z,26.90
2018-08-12T17:50:27.676Z,26.70
2018-08-12T17:52:57.081Z,26.60
2018-08-12T17:55:26.727Z,26.50
2018-08-12T17:57:55.423Z,26.40
2018-08-12T18:00:23.794Z,26.30
2018-08-12T18:02:52.195Z,26.20
2018-08-12T18:05:23.865Z,26.10
2018-08-12T18:07:52.489Z,26.00
2018-08-12T18:10:21.239Z,25.90
2018-08-12T18:17:49.369Z,25.90
2018-08-12T18:20:17.742Z,25.70
2018-08-12T18:22:46.177Z,25.50
2018-08-12T18:25:14.495Z,25.50
2018-08-12T18:27:44.977Z,25.40
2018-08-12T18:30:15.127Z,25.30
2018-08-12T18:32:43.435Z,25.20
2018-08-12T18:35:12.599Z,25.10
2018-08-12T18:37:41.477Z,25.10
2018-08-12T18:40:11.826Z,24.90
2018-08-12T18:42:40.735Z,24.90
2018-08-12T18:45:09.811Z,24.80
2018-08-12T18:47:38.945Z,24.70
2018-08-12T18:50:10.022Z,24.60
2018-08-12T18:52:40.790Z,24.60
2018-08-12T18:55:10.979Z,24.60
2018-08-12T18:57:39.787Z,24.60
2018-08-12T19:00:10.810Z,24.50
2018-08-12T19:02:44.362Z,24.50
2018-08-12T19:05:16.210Z,24.40
2018-08-12T19:07:46.495Z,24.40
2018-08-12T19:10:17.512Z,24.30
2018-08-12T19:12:46.040Z,24.30
2018-08-12T19:15:14.415Z,24.20
2018-08-12T19:17:42.797Z,24.20
2018-08-12T19:20:11.893Z,24.10
2018-08-12T19:22:40.734Z,24.00
2018-08-12T19:25:10.191Z,24.00
2018-08-12T19:27:38.758Z,23.90
2018-08-12T19:30:09.944Z,23.90
2018-08-12T19:32:39.014Z,23.80
2018-08-12T19:35:07.985Z,23.80
2018-08-12T19:37:41.284Z,23.70
2018-08-12T19:40:10.178Z,23.60
2018-08-12T19:42:39.031Z,23.60
2018-08-12T19:45:08.643Z,23.40
2018-08-12T22:43:15.716Z,23.40
2018-08-12T22:45:44.922Z,20.60
2018-08-12T22:48:13.329Z,20.50
2018-08-12T22:50:42.391Z,20.40
2018-08-12T22:53:10.757Z,20.40
2018-08-12T22:55:39.103Z,20.40
2018-08-12T22:58:07.375Z,20.40
2018-08-12T23:00:35.815Z,20.30
2018-08-12T23:03:04.241Z,20.30
2018-08-12T23:05:32.551Z,20.30
2018-08-12T23:08:06.928Z,20.30
2018-08-12T23:10:35.629Z,20.30
2018-08-12T23:13:04.292Z,20.30
2018-08-12T23:16:13.361Z,20.30
2018-08-12T23:18:41.763Z,20.20
2018-08-12T23:21:11.943Z,20.20
2018-08-12T23:23:41.814Z,20.10
2018-08-12T23:26:11.252Z,20.10
2018-08-12T23:28:39.652Z,20.10
2018-08-12T23:31:08.304Z,20.00
2018-08-12T23:33:37.045Z,20.00
2018-08-12T23:36:06.096Z,20.00
2018-08-12T23:38:34.768Z,19.90
2018-08-12T23:41:04.204Z,19.90
2018-08-12T23:43:32.598Z,19.80
2018-08-12T23:46:00.973Z,19.80
2018-08-12T23:48:29.991Z,19.70
2018-08-12T23:50:58.340Z,19.70
2018-08-12T23:53:26.633Z,19.70
2018-08-12T23:55:54.965Z,19.70
2018-08-12T23:58:24.025Z,19.60
